Time;durP1;ratioP1;P1;durP2;ratioP2;P2;SDS_P1;SDS_P2;PMS_P1;PMS_P2;Temp;Humidity;BMP_temperature;BMP_pressure;BME280_temperature;BME280_humidity;BME280_pressure;Samples;Min_cycle;Max_cycle;Signal;HPM_P1;HPM_P2
2023/05/27 00:01:29;;;;;;;;;;;;;;;14.90;92.61;95175.34;5114832;28;1032;-55
2023/05/27 00:03:55;;;;;;;;;;;;;;;15.01;90.85;95174.03;5114756;28;978;-55
2023/05/27 00:06:21;;;;;;;;;;;;;;;15.00;90.69;95170.47;5114500;28;1984;-55
2023/05/27 00:08:47;;;;;;;;;;;;;;;14.78;92.53;95168.78;5114882;28;1052;-55
2023/05/27 00:11:13;;;;;;;;;;;;;;;14.48;93.61;95168.72;5114417;28;1108;-55
2023/05/27 00:13:38;;;;;;;;;;;;;;;14.60;93.17;95171.81;5114516;28;1025;-55
2023/05/27 00:16:05;;;;;;;;;;;;;;;14.71;92.60;95162.47;5114642;28;1044;-55
2023/05/27 00:18:32;;;;;;;;;;;;;;;14.81;93.14;95165.69;5114405;28;942;-55
2023/05/27 00:20:59;;;;;;;;;;;;;;;15.05;92.05;95158.34;5114462;28;1059;-55
2023/05/27 00:23:25;;;;;;;;;;;;;;;15.15;92.02;95166.94;5113720;28;1057;-55
2023/05/27 00:25:51;;;;;;;;;;;;;;;14.60;90.62;95172.66;5114500;28;1992;-55
2023/05/27 00:28:16;;;;;;;;;;;;;;;14.46;92.58;95168.09;5134210;27;1609;-55
2023/05/27 00:30:42;;;;;;;;;;;;;;;14.79;93.70;95156.97;5134904;27;1016;-55
2023/05/27 00:33:08;;;;;;;;;;;;;;;15.16;91.60;95152.47;5134848;27;1033;-55
2023/05/27 00:35:34;;;;;;;;;;;;;;;15.34;90.57;95152.03;5134667;27;984;-55
2023/05/27 00:38:00;;;;;;;;;;;;;;;15.51;89.86;95150.75;5134714;27;1741;-55
2023/05/27 00:40:28;;;;;;;;;;;;;;;15.66;89.08;95147.19;5134571;27;1116;-55
2023/05/27 00:42:54;;;;;;;;;;;;;;;15.93;87.04;95159.91;5134906;27;1040;-55
2023/05/27 00:45:20;;;;;;;;;;;;;;;16.00;86.61;95152.69;5134667;27;1052;-55
2023/05/27 00:47:46;;;;;;;;;;;;;;;16.01;86.34;95153.53;5134824;27;1967;-55
2023/05/27 00:50:12;;;;;;;;;;;;;;;15.87;87.14;95149.88;5134430;27;1008;-55
2023/05/27 00:52:38;;;;;;;;;;;;;;;15.83;87.28;95154.00;5134789;27;1055;-55
2023/05/27 00:55:05;;;;;;;;;;;;;;;15.78;87.93;95151.91;5134240;27;1102;-55
2023/05/27 00:57:33;;;;;;;;;;;;;;;15.80;88.03;95144.47;5134606;27;1001;-55
2023/05/27 00:59:58;;;;;;;;;;;;;;;15.79;88.26;95141.94;5134412;27;1291;-55
2023/05/27 01:02:25;;;;;;;;;;;;;;;15.72;86.41;95141.84;5134545;27;1015;-55
2023/05/27 01:04:51;;;;;;;;;;;;;;;15.19;87.23;95141.31;5134547;27;977;-55
2023/05/27 01:07:27;;;;;;;;;;;;;;;15.17;88.50;95143.34;5134457;28;1906;-55
2023/05/27 01:09:57;;;;;;;;;;;;;;;15.15;89.71;95151.63;5134497;28;1020;-55
2023/05/27 01:12:29;;;;;;;;;;;;;;;15.12;90.39;95141.25;5134141;28;1088;-55
2023/05/27 01:14:57;;;;;;;;;;;;;;;14.97;90.56;95143.97;5134231;28;1085;-55
2023/05/27 01:17:24;;;;;;;;;;;;;;;14.82;90.40;95146.66;5134370;28;1040;-55
2023/05/27 01:19:51;;;;;;;;;;;;;;;14.64;90.07;95135.44;5134225;28;1100;-55
2023/05/27 01:22:18;;;;;;;;;;;;;;;14.64;90.95;95139.00;5134260;28;1022;-55
2023/05/27 01:24:44;;;;;;;;;;;;;;;14.68;91.69;95138.59;5134458;28;1044;-55
2023/05/27 01:27:15;;;;;;;;;;;;;;;14.71;91.70;95143.63;5133781;28;1947;-55
2023/05/27 01:29:41;;;;;;;;;;;;;;;14.68;91.48;95139.44;5134144;28;977;-55
2023/05/27 01:32:07;;;;;;;;;;;;;;;14.48;90.07;95149.06;5134333;28;969;-55
2023/05/27 01:34:41;;;;;;;;;;;;;;;14.08;91.33;95143.94;5135133;27;993;-55
2023/05/27 01:37:09;;;;;;;;;;;;;;;14.13;93.18;95156.81;5138248;27;1045;-55
2023/05/27 01:39:35;;;;;;;;;;;;;;;14.00;96.89;95146.69;5138146;27;1663;-55
2023/05/27 01:42:03;;;;;;;;;;;;;;;13.99;97.76;95153.09;5138208;27;1028;-55
2023/05/27 01:44:30;;;;;;;;;;;;;;;14.06;97.42;95152.16;5138037;27;981;-55
2023/05/27 01:47:02;;;;;;;;;;;;;;;14.32;95.43;95164.34;5138135;27;1909;-56
2023/05/27 01:49:30;;;;;;;;;;;;;;;14.37;94.45;95153.88;5138174;27;1036;-56
2023/05/27 01:51:56;;;;;;;;;;;;;;;14.37;94.22;95147.66;5137906;27;1936;-56
2023/05/27 01:54:22;;;;;;;;;;;;;;;14.47;94.02;95148.22;5137700;27;1083;-56
2023/05/27 01:56:48;;;;;;;;;;;;;;;14.06;92.98;95148.66;5137776;27;1028;-56
2023/05/27 01:59:14;;;;;;;;;;;;;;;13.82;94.91;95144.34;5138006;27;1031;-56
2023/05/27 02:01:41;;;;;;;;;;;;;;;13.93;94.81;95149.28;5137696;27;1116;-56
2023/05/27 02:04:07;;;;;;;;;;;;;;;14.07;94.32;95142.25;5137678;27;1124;-56
2023/05/27 02:06:33;;;;;;;;;;;;;;;14.17;93.84;95142.84;5119504;27;1914;-56
2023/05/27 02:09:00;;;;;;;;;;;;;;;14.15;93.73;95152.09;5137571;27;1033;-56
2023/05/27 02:11:26;;;;;;;;;;;;;;;14.16;94.10;95146.53;5137483;27;999;-56
2023/05/27 02:13:52;;;;;;;;;;;;;;;14.28;94.19;95148.78;5137647;27;1039;-56
2023/05/27 02:16:20;;;;;;;;;;;;;;;14.45;93.24;95148.44;5137633;27;997;-56
2023/05/27 02:18:49;;;;;;;;;;;;;;;14.73;92.38;95142.41;5137673;27;1116;-56
2023/05/27 02:21:15;;;;;;;;;;;;;;;15.00;90.89;95127.41;5137440;27;1016;-56
2023/05/27 02:23:41;;;;;;;;;;;;;;;15.28;89.31;95139.34;5128411;27;2634;-56
2023/05/27 02:26:07;;;;;;;;;;;;;;;15.39;89.37;95131.56;5118170;27;2000;-56
2023/05/27 02:28:33;;;;;;;;;;;;;;;15.37;88.40;95136.31;5137365;27;980;-56
2023/05/27 02:30:59;;;;;;;;;;;;;;;15.50;87.97;95137.47;5135277;27;2766;-56
2023/05/27 02:33:25;;;;;;;;;;;;;;;15.65;87.58;95140.97;5137090;27;973;-56
2023/05/27 02:35:51;;;;;;;;;;;;;;;15.67;87.59;95141.59;5137255;27;996;-56
2023/05/27 02:38:17;;;;;;;;;;;;;;;15.72;87.35;95138.31;5137043;27;1062;-57
2023/05/27 02:40:43;;;;;;;;;;;;;;;15.53;87.07;95145.19;5137075;27;1064;-57
2023/05/27 02:43:09;;;;;;;;;;;;;;;15.35;87.44;95134.84;5136893;27;968;-57
2023/05/27 02:45:35;;;;;;;;;;;;;;;15.32;89.05;95135.22;5136342;27;1906;-57
2023/05/27 02:48:01;;;;;;;;;;;;;;;15.45;87.83;95146.16;5136438;27;1034;-57
2023/05/27 02:50:27;;;;;;;;;;;;;;;15.22;86.97;95135.53;5136814;27;987;-57
2023/05/27 02:52:53;;;;;;;;;;;;;;;15.04;88.22;95135.94;5136835;27;992;-57
2023/05/27 02:55:19;;;;;;;;;;;;;;;15.25;89.34;95139.69;5136440;27;1332;-56
2023/05/27 02:57:45;;;;;;;;;;;;;;;15.44;88.17;95131.00;5136639;27;916;-57
2023/05/27 03:00:12;;;;;;;;;;;;;;;15.59;86.84;95133.63;5136831;27;1219;-57
2023/05/27 03:02:38;;;;;;;;;;;;;;;15.73;85.82;95137.31;5136787;27;992;-56
2023/05/27 03:05:04;;;;;;;;;;;;;;;15.88;84.56;95135.41;5136417;27;1034;-56
2023/05/27 03:07:30;;;;;;;;;;;;;;;15.87;84.42;95133.72;5136580;27;1913;-57
2023/05/27 03:09:56;;;;;;;;;;;;;;;15.84;84.50;95144.06;5136438;27;1525;-56
2023/05/27 03:12:22;;;;;;;;;;;;;;;15.81;84.54;95145.28;5136304;27;1047;-56
2023/05/27 03:14:49;;;;;;;;;;;;;;;15.80;84.20;95147.16;5136506;27;985;-56
2023/05/27 03:17:15;;;;;;;;;;;;;;;15.81;85.47;95153.38;5136478;27;961;-56
2023/05/27 03:19:41;;;;;;;;;;;;;;;15.72;85.21;95151.78;5136409;27;1024;-56
2023/05/27 03:22:08;;;;;;;;;;;;;;;15.57;86.05;95149.97;5117972;27;1056;-57
2023/05/27 03:24:35;;;;;;;;;;;;;;;15.32;87.69;95141.44;5136342;27;1001;-56
2023/05/27 03:27:01;;;;;;;;;;;;;;;15.34;87.43;95144.78;5136125;27;1992;-56
2023/05/27 03:29:27;;;;;;;;;;;;;;;15.34;87.56;95150.16;5117726;27;1093;-56
2023/05/27 03:31:53;;;;;;;;;;;;;;;15.37;87.85;95141.72;5136157;27;941;-56
2023/05/27 03:34:19;;;;;;;;;;;;;;;15.42;87.84;95150.06;5136049;27;1043;-56
2023/05/27 03:36:46;;;;;;;;;;;;;;;15.45;87.93;95146.16;5136172;27;1001;-56
2023/05/27 03:39:12;;;;;;;;;;;;;;;15.47;88.17;95145.97;5135803;27;964;-56
2023/05/27 03:41:38;;;;;;;;;;;;;;;15.29;88.18;95141.00;5135759;27;1032;-56
2023/05/27 03:44:04;;;;;;;;;;;;;;;14.99;89.49;95152.69;5135911;27;1047;-56
2023/05/27 03:46:31;;;;;;;;;;;;;;;15.17;88.78;95156.81;5117322;27;2021;-56
2023/05/27 03:48:57;;;;;;;;;;;;;;;15.39;87.61;95149.63;5135659;27;1055;-56
2023/05/27 03:51:24;;;;;;;;;;;;;;;15.51;86.25;95158.03;5135672;27;977;-56
2023/05/27 03:53:50;;;;;;;;;;;;;;;15.72;84.85;95152.63;5135653;27;1290;-56
2023/05/27 03:56:16;;;;;;;;;;;;;;;15.80;85.15;95149.84;5135336;27;1665;-56
2023/05/27 03:58:42;;;;;;;;;;;;;;;15.90;83.22;95154.09;5135515;27;1029;-56
2023/05/27 04:01:09;;;;;;;;;;;;;;;16.10;81.69;95149.66;5135776;27;963;-56
2023/05/27 04:03:35;;;;;;;;;;;;;;;16.22;80.54;95154.53;5135224;27;1045;-56
2023/05/27 04:06:02;;;;;;;;;;;;;;;16.33;79.69;95154.00;5135140;27;1994;-56
2023/05/27 04:08:28;;;;;;;;;;;;;;;16.39;78.72;95148.66;5135437;27;1056;-56
2023/05/27 04:10:54;;;;;;;;;;;;;;;16.49;78.35;95159.09;5135246;27;1067;-56
2023/05/27 04:13:21;;;;;;;;;;;;;;;16.72;77.29;95148.00;5135047;27;1634;-56
2023/05/27 04:15:48;;;;;;;;;;;;;;;16.75;77.07;95154.88;5135091;27;1135;-56
2023/05/27 04:18:14;;;;;;;;;;;;;;;16.74;78.00;95153.22;5135093;27;996;-56
2023/05/27 04:20:42;;;;;;;;;;;;;;;16.91;76.99;95145.66;5134995;27;1152;-56
2023/05/27 04:23:08;;;;;;;;;;;;;;;16.94;77.80;95146.09;5135055;27;1039;-56
2023/05/27 04:25:35;;;;;;;;;;;;;;;17.17;75.80;95148.47;5135002;27;2000;-55
2023/05/27 04:28:04;;;;;;;;;;;;;;;17.39;75.81;95147.50;5134776;27;1304;-56
2023/05/27 04:30:30;;;;;;;;;;;;;;;17.76;73.62;95146.13;5134700;27;1104;-56
2023/05/27 04:32:57;;;;;;;;;;;;;;;18.06;73.40;95151.16;5134992;27;1036;-56
2023/05/27 04:35:23;;;;;;;;;;;;;;;18.38;72.23;95157.59;5134813;27;960;-56
2023/05/27 04:37:49;;;;;;;;;;;;;;;18.59;71.60;95159.28;5134728;27;1115;-56
2023/05/27 04:40:16;;;;;;;;;;;;;;;18.79;69.56;95161.09;5116237;27;1049;-56
2023/05/27 04:42:43;;;;;;;;;;;;;;;18.56;71.37;95159.69;5134618;27;1037;-56
2023/05/27 04:45:11;;;;;;;;;;;;;;;18.57;70.10;95155.09;5134842;27;961;-55
2023/05/27 04:47:37;;;;;;;;;;;;;;;18.69;69.44;95156.13;5134685;27;1987;-55
2023/05/27 04:50:04;;;;;;;;;;;;;;;18.98;69.73;95160.22;5134571;27;1031;-56
2023/05/27 04:52:37;;;;;;;;;;;;;;;19.07;69.08;95153.53;5134339;27;1315;-56
2023/05/27 04:55:04;;;;;;;;;;;;;;;19.32;69.75;95150.09;5134236;27;1332;-56
2023/05/27 04:57:30;;;;;;;;;;;;;;;19.47;67.52;95150.66;5134316;27;1064;-56
2023/05/27 05:02:39;;;;;;;;;;;;;;;19.85;66.93;95162.56;5134154;27;1052;-56
2023/05/27 05:05:06;;;;;;;;;;;;;;;19.84;66.53;95164.47;5134385;27;1067;-56
2023/05/27 05:07:33;;;;;;;;;;;;;;;19.86;66.30;95164.22;5134048;28;1902;-56
2023/05/27 05:09:59;;;;;;;;;;;;;;;20.01;65.66;95170.16;5134114;27;1203;-56
2023/05/27 05:12:25;;;;;;;;;;;;;;;20.08;64.99;95170.97;5116016;28;1967;-55
2023/05/27 05:14:52;;;;;;;;;;;;;;;20.15;65.04;95168.22;5134188;28;1037;-56
2023/05/27 05:17:18;;;;;;;;;;;;;;;20.23;65.70;95173.34;5133960;28;1048;-56
2023/05/27 05:19:45;;;;;;;;;;;;;;;20.26;63.99;95175.63;5133733;28;1971;-56
2023/05/27 05:22:13;;;;;;;;;;;;;;;20.31;65.62;95174.97;5134025;28;1040;-56
2023/05/27 05:24:39;;;;;;;;;;;;;;;20.43;64.21;95170.50;5134076;28;1038;-56
2023/05/27 05:27:08;;;;;;;;;;;;;;;20.47;63.94;95171.72;5134052;28;1910;-56
2023/05/27 05:29:34;;;;;;;;;;;;;;;20.74;63.01;95179.63;5133866;28;1033;-56
2023/05/27 05:32:00;;;;;;;;;;;;;;;21.22;62.56;95180.81;5134058;28;1035;-56
2023/05/27 05:34:26;;;;;;;;;;;;;;;21.45;61.15;95171.97;5133985;28;973;-56
2023/05/27 05:36:52;;;;;;;;;;;;;;;21.59;61.22;95175.38;5133932;28;1049;-56
2023/05/27 05:39:20;;;;;;;;;;;;;;;21.54;60.63;95176.03;5133890;28;1041;-56
2023/05/27 05:41:46;;;;;;;;;;;;;;;21.16;61.25;95168.13;5116036;28;1012;-56
2023/05/27 05:44:12;;;;;;;;;;;;;;;20.59;63.15;95168.25;5133748;28;1045;-56
2023/05/27 05:46:38;;;;;;;;;;;;;;;20.23;63.71;95173.34;5134063;28;1963;-56
2023/05/27 05:49:05;;;;;;;;;;;;;;;19.95;63.20;95179.19;5134121;28;993;-56
2023/05/27 05:51:31;;;;;;;;;;;;;;;20.05;64.21;95167.84;5133702;28;965;-56
2023/05/27 05:53:57;;;;;;;;;;;;;;;20.90;61.80;95180.94;5115410;28;2904;-56
2023/05/27 05:56:23;;;;;;;;;;;;;;;21.25;61.73;95178.47;5113224;28;1038;-56
2023/05/27 05:58:49;;;;;;;;;;;;;;;21.81;58.55;95175.69;5113274;28;1084;-56
2023/05/27 06:01:15;;;;;;;;;;;;;;;22.32;59.40;95185.22;5113447;28;969;-56
2023/05/27 06:03:41;;;;;;;;;;;;;;;22.64;56.16;95190.38;5113216;28;1118;-56
2023/05/27 06:06:08;;;;;;;;;;;;;;;22.65;56.55;95194.75;5113170;28;2016;-56
2023/05/27 06:08:34;;;;;;;;;;;;;;;22.78;57.43;95191.81;5113262;28;1028;-56
2023/05/27 06:11:00;;;;;;;;;;;;;;;22.87;55.21;95189.53;5113343;28;964;-56
2023/05/27 06:13:26;;;;;;;;;;;;;;;22.53;56.14;95181.09;5113021;28;1045;-56
2023/05/27 06:15:52;;;;;;;;;;;;;;;22.07;58.27;95184.53;5095092;28;1045;-56
2023/05/27 06:18:18;;;;;;;;;;;;;;;21.62;60.32;95186.59;5112812;28;1072;-56
2023/05/27 06:20:44;;;;;;;;;;;;;;;21.28;59.87;95190.75;5112962;28;1021;-56
2023/05/27 06:23:09;;;;;;;;;;;;;;;20.93;60.60;95201.41;5116104;28;1045;-55
2023/05/27 06:25:35;;;;;;;;;;;;;;;20.72;62.48;95195.34;5098688;28;993;-55
2023/05/27 06:28:01;;;;;;;;;;;;;;;21.23;61.47;95193.34;5134688;27;1910;-56
2023/05/27 06:30:27;;;;;;;;;;;;;;;22.16;58.76;95197.59;5136939;27;1049;-56
2023/05/27 06:32:53;;;;;;;;;;;;;;;22.87;55.88;95199.63;5137116;27;988;-56
2023/05/27 06:35:19;;;;;;;;;;;;;;;23.34;55.31;95199.63;5137158;27;1049;-55
2023/05/27 06:37:45;;;;;;;;;;;;;;;23.63;55.76;95202.41;5136736;27;1065;-55
2023/05/27 06:40:11;;;;;;;;;;;;;;;24.03;51.73;95205.13;5136754;27;1019;-55
2023/05/27 06:42:37;;;;;;;;;;;;;;;24.03;55.43;95201.56;5137015;27;969;-55
2023/05/27 06:45:04;;;;;;;;;;;;;;;23.48;55.37;95201.00;5136909;27;1008;-56
2023/05/27 06:47:30;;;;;;;;;;;;;;;23.29;54.69;95180.41;5137164;27;1914;-56
2023/05/27 06:49:56;;;;;;;;;;;;;;;22.87;55.85;95205.91;5136639;27;960;-56
2023/05/27 06:52:22;;;;;;;;;;;;;;;22.63;56.60;95202.31;5136442;27;1100;-56
2023/05/27 06:54:48;;;;;;;;;;;;;;;22.17;57.59;95196.50;5136399;27;1230;-56
2023/05/27 06:57:14;;;;;;;;;;;;;;;21.94;59.03;95196.44;5136794;27;1001;-56
2023/05/27 06:59:40;;;;;;;;;;;;;;;21.74;58.49;95197.56;5136584;27;1052;-56
2023/05/27 07:02:06;;;;;;;;;;;;;;;21.66;59.79;95199.75;5136418;27;1053;-56
2023/05/27 07:04:32;;;;;;;;;;;;;;;21.48;60.79;95204.16;5136272;27;1053;-56
2023/05/27 07:06:59;;;;;;;;;;;;;;;21.49;61.17;95200.38;5136168;27;1913;-56
2023/05/27 07:09:24;;;;;;;;;;;;;;;21.51;63.23;95198.25;5136479;27;969;-56
2023/05/27 07:11:50;;;;;;;;;;;;;;;21.61;61.64;95198.56;5136324;27;1108;-56
2023/05/27 07:14:16;;;;;;;;;;;;;;;21.60;62.04;95201.50;5117975;27;1120;-56
2023/05/27 07:16:42;;;;;;;;;;;;;;;21.64;60.98;95198.13;5136506;27;1001;-56
2023/05/27 07:19:08;;;;;;;;;;;;;;;21.72;60.20;95201.56;5136031;27;992;-55
2023/05/27 07:21:34;;;;;;;;;;;;;;;21.74;60.96;95194.84;5133677;27;2558;-56
2023/05/27 07:24:03;;;;;;;;;;;;;;;21.72;62.83;95201.56;5136099;27;1019;-56
2023/05/27 07:26:29;;;;;;;;;;;;;;;21.49;61.68;95202.28;5135921;27;1992;-56
2023/05/27 07:28:59;;;;;;;;;;;;;;;21.47;61.98;95202.50;5136096;27;1132;-56
2023/05/27 07:31:25;;;;;;;;;;;;;;;21.39;63.35;95206.31;5135720;27;1104;-56
2023/05/27 07:33:52;;;;;;;;;;;;;;;21.34;62.53;95210.78;5135354;27;1038;-56
2023/05/27 07:36:18;;;;;;;;;;;;;;;21.12;61.98;95211.22;5135895;27;988;-56
2023/05/27 07:38:43;;;;;;;;;;;;;;;21.03;63.69;95218.03;5136364;27;973;-56
2023/05/27 07:41:10;;;;;;;;;;;;;;;20.98;64.33;95207.84;5135965;27;1041;-56
2023/05/27 07:43:36;;;;;;;;;;;;;;;21.05;65.01;95208.56;5135933;27;1028;-56
2023/05/27 07:46:02;;;;;;;;;;;;;;;21.24;61.98;95208.59;5135810;27;1987;-56
2023/05/27 07:48:28;;;;;;;;;;;;;;;21.50;62.24;95204.78;5135405;27;1053;-56
2023/05/27 07:50:55;;;;;;;;;;;;;;;22.02;61.59;95209.72;5135672;27;1196;-56
2023/05/27 07:53:21;;;;;;;;;;;;;;;21.84;61.33;95207.91;5135681;27;1041;-56
2023/05/27 07:55:47;;;;;;;;;;;;;;;21.99;62.21;95200.13;5135265;27;1218;-56
2023/05/27 07:58:13;;;;;;;;;;;;;;;21.97;63.61;95199.53;5135605;27;1000;-56
2023/05/27 08:00:39;;;;;;;;;;;;;;;22.02;61.61;95205.13;5135362;27;1041;-56
2023/05/27 08:03:05;;;;;;;;;;;;;;;22.07;62.21;95198.97;5135259;27;1035;-56
2023/05/27 08:05:32;;;;;;;;;;;;;;;22.03;62.66;95206.78;5135296;27;988;-56
2023/05/27 08:07:58;;;;;;;;;;;;;;;22.06;62.92;95207.38;5135130;27;1886;-56
2023/05/27 08:10:24;;;;;;;;;;;;;;;22.16;64.50;95207.66;5135205;27;1124;-56
2023/05/27 08:12:50;;;;;;;;;;;;;;;22.31;63.59;95208.09;5135016;27;1041;-56
2023/05/27 08:15:16;;;;;;;;;;;;;;;22.23;62.80;95202.91;5134999;27;1043;-56
2023/05/27 08:17:43;;;;;;;;;;;;;;;22.32;60.86;95198.84;5134942;27;1109;-56
2023/05/27 08:20:10;;;;;;;;;;;;;;;22.03;60.67;95201.34;5134875;27;1108;-56
2023/05/27 08:22:36;;;;;;;;;;;;;;;21.80;63.55;95195.81;5135190;27;961;-56
2023/05/27 08:25:03;;;;;;;;;;;;;;;21.68;61.03;95200.34;5135029;27;1047;-56
2023/05/27 08:27:42;;;;;;;;;;;;;;;21.67;61.54;95196.81;5134597;27;1910;-56
2023/05/27 08:30:08;;;;;;;;;;;;;;;21.63;61.45;95201.06;5134719;27;1044;-56
2023/05/27 08:32:34;;;;;;;;;;;;;;;21.50;62.83;95202.03;5134461;27;1057;-56
2023/05/27 08:35:00;;;;;;;;;;;;;;;21.50;62.39;95191.16;5134525;27;1045;-56
2023/05/27 08:37:26;;;;;;;;;;;;;;;21.48;61.30;95195.19;5134537;27;928;-56
2023/05/27 08:39:53;;;;;;;;;;;;;;;21.43;62.92;95193.91;5134769;27;1027;-56
2023/05/27 08:42:19;;;;;;;;;;;;;;;21.37;63.67;95200.28;5134693;27;988;-56
2023/05/27 08:44:45;;;;;;;;;;;;;;;21.40;62.60;95194.41;5133794;27;980;-56
2023/05/27 08:47:12;;;;;;;;;;;;;;;21.28;63.99;95192.66;5116380;27;1936;-56
2023/05/27 08:49:38;;;;;;;;;;;;;;;21.21;63.76;95204.44;5116376;27;1017;-56
2023/05/27 08:52:06;;;;;;;;;;;;;;;21.17;63.28;95199.66;5134647;27;1031;-56
2023/05/27 08:54:33;;;;;;;;;;;;;;;21.09;65.64;95205.41;5134343;27;1183;-56
2023/05/27 08:57:00;;;;;;;;;;;;;;;20.89;64.99;95198.31;5134406;27;1047;-56
2023/05/27 08:59:27;;;;;;;;;;;;;;;20.93;66.00;95195.97;5134475;27;1007;-56
2023/05/27 09:01:54;;;;;;;;;;;;;;;20.91;65.84;95198.09;5134264;27;1123;-56
2023/05/27 09:04:20;;;;;;;;;;;;;;;21.06;63.85;95206.72;5134135;27;1053;-56
2023/05/27 09:06:46;;;;;;;;;;;;;;;21.24;65.44;95197.72;5134440;27;1914;-56
2023/05/27 09:09:12;;;;;;;;;;;;;;;21.46;64.19;95200.84;5134019;28;1305;-56
2023/05/27 09:11:39;;;;;;;;;;;;;;;21.51;61.56;95197.44;5134301;28;1136;-56
2023/05/27 09:14:05;;;;;;;;;;;;;;;21.59;61.16;95197.97;5134396;28;1129;-56
2023/05/27 09:16:31;;;;;;;;;;;;;;;21.79;61.62;95203.13;5134379;28;1036;-56
2023/05/27 09:18:57;;;;;;;;;;;;;;;22.01;60.93;95200.75;5134089;28;1140;-56
2023/05/27 09:21:26;;;;;;;;;;;;;;;21.95;61.36;95196.22;5134373;28;957;-56
2023/05/27 09:23:59;;;;;;;;;;;;;;;21.96;61.96;95197.88;5134094;28;1053;-56
2023/05/27 09:26:27;;;;;;;;;;;;;;;22.05;61.86;95200.28;5133838;28;1902;-56
2023/05/27 09:28:53;;;;;;;;;;;;;;;22.15;60.93;95195.09;5133927;28;1042;-56
2023/05/27 09:31:20;;;;;;;;;;;;;;;22.19;62.02;95202.56;5134081;28;1059;-56
2023/05/27 09:33:46;;;;;;;;;;;;;;;22.00;62.88;95195.50;5134091;28;1036;-56
2023/05/27 09:36:12;;;;;;;;;;;;;;;21.88;61.04;95198.19;5134158;28;1063;-56
2023/05/27 09:38:38;;;;;;;;;;;;;;;21.78;62.27;95204.19;5133985;28;1209;-56
2023/05/27 09:41:04;;;;;;;;;;;;;;;21.80;62.62;95193.09;5133877;28;1108;-56
2023/05/27 09:43:30;;;;;;;;;;;;;;;21.86;62.46;95194.88;5133735;28;973;-56
2023/05/27 09:46:03;;;;;;;;;;;;;;;22.06;61.57;95202.75;5134275;28;1913;-56
2023/05/27 09:48:33;;;;;;;;;;;;;;;22.08;61.53;95197.09;5133945;28;944;-55
2023/05/27 09:50:59;;;;;;;;;;;;;;;22.31;60.78;95194.47;5133813;28;1887;-56
2023/05/27 09:53:26;;;;;;;;;;;;;;;22.31;61.52;95189.03;5134026;28;969;-56
2023/05/27 09:55:53;;;;;;;;;;;;;;;22.54;62.56;95187.41;5134930;27;1304;-56
2023/05/27 09:58:20;;;;;;;;;;;;;;;22.71;60.58;95185.63;5137626;27;1108;-56
2023/05/27 10:00:47;;;;;;;;;;;;;;;22.70;59.84;95189.41;5137834;27;976;-56
2023/05/27 10:03:13;;;;;;;;;;;;;;;22.56;59.07;95188.81;5137420;27;1096;-56
2023/05/27 10:05:40;;;;;;;;;;;;;;;22.61;59.33;95185.38;5137703;27;977;-56
2023/05/27 10:08:06;;;;;;;;;;;;;;;22.62;59.26;95187.03;5137473;27;1909;-56
2023/05/27 10:10:32;;;;;;;;;;;;;;;22.50;57.59;95191.63;5137612;27;1110;-56
2023/05/27 10:12:59;;;;;;;;;;;;;;;22.36;58.53;95191.03;5135043;27;2506;-56
2023/05/27 10:15:27;;;;;;;;;;;;;;;22.55;56.33;95178.16;5137293;27;1055;-56
2023/05/27 10:17:57;;;;;;;;;;;;;;;22.62;57.62;95184.31;5137648;27;972;-56
2023/05/27 10:20:27;;;;;;;;;;;;;;;22.58;58.18;95185.88;5137268;27;1032;-56
2023/05/27 10:22:53;;;;;;;;;;;;;;;22.36;56.71;95178.22;5137370;27;1031;-56
2023/05/27 10:25:19;;;;;;;;;;;;;;;22.68;56.67;95171.66;5137142;27;1021;-56
2023/05/27 10:27:45;;;;;;;;;;;;;;;23.34;53.58;95162.25;5136944;27;1901;-56
2023/05/27 10:30:15;;;;;;;;;;;;;;;23.96;55.19;95158.84;5137363;27;972;-56
2023/05/27 10:32:59;;;;;;;;;;;;;;;24.35;53.47;95163.63;5137391;27;964;-56
2023/05/27 10:35:26;;;;;;;;;;;;;;;24.98;51.45;95161.63;5137350;27;1056;-56
2023/05/27 10:37:52;;;;;;;;;;;;;;;25.21;51.38;95157.03;5137168;27;1049;-56
2023/05/27 10:40:25;;;;;;;;;;;;;;;25.02;49.98;95156.50;5137080;27;972;-56
2023/05/27 10:43:02;;;;;;;;;;;;;;;24.75;50.73;95149.81;5136980;27;1091;-56
2023/05/27 10:45:32;;;;;;;;;;;;;;;24.02;51.11;95142.53;5136926;27;1008;-56
2023/05/27 10:47:58;;;;;;;;;;;;;;;23.62;51.51;95137.94;5135634;27;2575;-56
2023/05/27 10:50:29;;;;;;;;;;;;;;;24.03;53.60;95136.03;5150955;27;2843;-56
2023/05/27 10:52:55;;;;;;;;;;;;;;;24.21;52.33;95137.69;5136993;27;957;-56
2023/05/27 10:55:21;;;;;;;;;;;;;;;24.01;54.24;95133.53;5136410;27;1091;-56
2023/05/27 10:57:47;;;;;;;;;;;;;;;23.89;55.29;95130.06;5118508;27;1056;-56
2023/05/27 11:00:15;;;;;;;;;;;;;;;23.64;54.82;95135.81;5136790;27;979;-56
2023/05/27 11:02:41;;;;;;;;;;;;;;;23.46;54.21;95087.72;5135716;27;2227;-56
2023/05/27 11:05:10;;;;;;;;;;;;;;;23.55;54.08;95125.28;5118456;27;2861;-56
2023/05/27 11:07:38;;;;;;;;;;;;;;;23.49;54.91;95126.25;5115308;28;1995;-56
2023/05/27 11:10:06;;;;;;;;;;;;;;;23.49;55.82;95117.25;5116107;28;1062;-57
2023/05/27 11:12:32;;;;;;;;;;;;;;;23.45;56.30;95127.81;5116047;28;957;-56
2023/05/27 11:14:58;;;;;;;;;;;;;;;23.15;55.46;95117.94;5116131;28;1032;-57
2023/05/27 11:17:28;;;;;;;;;;;;;;;22.88;55.55;95114.88;5115565;28;962;-56
2023/05/27 11:19:54;;;;;;;;;;;;;;;22.70;57.59;95117.75;5123256;27;2878;-56
2023/05/27 11:22:21;;;;;;;;;;;;;;;22.61;57.60;95118.09;5116066;27;2943;-56
2023/05/27 11:24:56;;;;;;;;;;;;;;;22.64;58.18;95116.78;5115625;28;1108;-56
2023/05/27 11:27:22;;;;;;;;;;;;;;;22.77;58.40;95113.81;5127619;27;1973;-56
2023/05/27 11:29:50;;;;;;;;;;;;;;;23.01;59.43;95111.03;5135896;27;1041;-56
2023/05/27 11:32:17;;;;;;;;;;;;;;;23.25;59.78;95106.41;5135752;27;956;-56
2023/05/27 11:34:44;;;;;;;;;;;;;;;23.15;58.33;95103.47;5136164;27;964;-56
2023/05/27 11:37:10;;;;;;;;;;;;;;;23.22;59.35;95100.59;5135845;27;1084;-56
2023/05/27 11:39:36;;;;;;;;;;;;;;;23.17;57.03;95110.34;5136103;27;1060;-56
2023/05/27 11:42:05;;;;;;;;;;;;;;;23.01;57.66;95100.13;5136049;27;965;-56
2023/05/27 11:44:31;;;;;;;;;;;;;;;22.94;56.88;95097.56;5135656;27;1063;-56
2023/05/27 11:46:59;;;;;;;;;;;;;;;22.92;54.77;95093.44;5135761;27;1992;-56
2023/05/27 11:49:25;;;;;;;;;;;;;;;22.96;56.74;95086.44;5135511;27;1056;-56
2023/05/27 11:51:54;;;;;;;;;;;;;;;23.12;57.63;95088.41;5136104;27;1039;-55
2023/05/27 11:54:27;;;;;;;;;;;;;;;23.28;56.76;95081.38;5135378;27;1405;-56
2023/05/27 11:56:53;;;;;;;;;;;;;;;23.36;56.81;95081.00;5135456;27;1112;-56
2023/05/27 11:59:20;;;;;;;;;;;;;;;23.49;56.77;95074.44;5135254;27;1048;-56
2023/05/27 12:01:46;;;;;;;;;;;;;;;23.31;55.15;95077.34;5124658;27;2572;-56
2023/05/27 12:04:12;;;;;;;;;;;;;;;23.12;54.40;95077.50;5134610;27;1057;-56
2023/05/27 12:06:38;;;;;;;;;;;;;;;23.06;54.80;95075.75;5135300;27;1984;-56
2023/05/27 12:09:05;;;;;;;;;;;;;;;23.02;55.92;95077.28;5135423;27;993;-56
2023/05/27 12:11:31;;;;;;;;;;;;;;;22.99;55.69;95075.03;5135187;27;1024;-56
2023/05/27 12:13:57;;;;;;;;;;;;;;;22.89;56.61;95077.53;5135005;27;1041;-56
2023/05/27 12:16:23;;;;;;;;;;;;;;;22.93;57.00;95068.63;5134869;27;1872;-55
2023/05/27 12:18:50;;;;;;;;;;;;;;;23.11;56.46;95075.88;5135185;27;1036;-56
2023/05/27 12:21:16;;;;;;;;;;;;;;;23.02;55.86;95073.72;5135073;27;961;-56
2023/05/27 12:23:42;;;;;;;;;;;;;;;22.79;55.33;95073.53;5135208;27;1027;-56
2023/05/27 12:26:09;;;;;;;;;;;;;;;22.52;56.33;95080.53;5132646;27;2480;-56
2023/05/27 12:28:35;;;;;;;;;;;;;;;22.29;57.75;95073.19;5113993;28;1045;-56
2023/05/27 12:31:02;;;;;;;;;;;;;;;22.06;61.31;95071.25;5114554;28;981;-56
2023/05/27 12:33:28;;;;;;;;;;;;;;;21.98;57.94;95077.88;5114085;28;1049;-56
2023/05/27 12:35:54;;;;;;;;;;;;;;;21.97;57.56;95070.78;5096347;28;989;-56
2023/05/27 12:38:20;;;;;;;;;;;;;;;22.23;59.95;95073.06;5114058;28;1081;-55
2023/05/27 12:40:46;;;;;;;;;;;;;;;22.50;57.46;95069.03;5114093;28;1116;-56
2023/05/27 12:43:12;;;;;;;;;;;;;;;22.75;57.32;95066.09;5114457;28;993;-56
2023/05/27 12:45:38;;;;;;;;;;;;;;;22.89;58.45;95059.28;5113967;28;1223;-56
2023/05/27 12:48:04;;;;;;;;;;;;;;;22.81;57.38;95063.22;5113794;28;1905;-56
2023/05/27 12:54:03;;;;;;;;;;;;;;;22.77;56.97;95061.22;5113941;28;1110;-56
2023/05/27 12:56:29;;;;;;;;;;;;;;;22.72;57.77;95056.47;5114033;28;1001;-56
2023/05/27 12:58:55;;;;;;;;;;;;;;;22.73;58.70;95047.25;5113785;28;1054;-56
2023/05/27 13:01:23;;;;;;;;;;;;;;;22.65;57.50;95053.06;5113685;28;1103;-56
2023/05/27 13:03:49;;;;;;;;;;;;;;;22.66;58.18;95056.59;5113995;28;1016;-56